sensor_id;sensor_type;location;lat;lon;timestamp;temperature;humidity
44431;DHT22;30135;47.866;-4.222;2022-09-30T00:00:30;13.30;89.70
44431;DHT22;30135;47.866;-4.222;2022-09-30T00:02:56;13.30;89.60
44431;DHT22;30135;47.866;-4.222;2022-09-30T00:05:22;13.30;89.60
44431;DHT22;30135;47.866;-4.222;2022-09-30T00:07:49;13.30;89.60
44431;DHT22;30135;47.866;-4.222;2022-09-30T00:10:15;13.20;89.60
44431;DHT22;30135;47.866;-4.222;2022-09-30T00:12:42;13.20;89.60
44431;DHT22;30135;47.866;-4.222;2022-09-30T00:15:08;13.20;89.60
44431;DHT22;30135;47.866;-4.222;2022-09-30T00:17:35;13.20;89.60
44431;DHT22;30135;47.866;-4.222;2022-09-30T00:20:01;13.10;89.50
44431;DHT22;30135;47.866;-4.222;2022-09-30T00:22:27;13.10;89.40
44431;DHT22;30135;47.866;-4.222;2022-09-30T00:24:53;13.10;89.40
44431;DHT22;30135;47.866;-4.222;2022-09-30T00:27:20;13.10;89.40
44431;DHT22;30135;47.866;-4.222;2022-09-30T00:29:46;13.10;89.40
44431;DHT22;30135;47.866;-4.222;2022-09-30T00:32:12;13.00;89.40
44431;DHT22;30135;47.866;-4.222;2022-09-30T00:34:38;13.00;89.40
44431;DHT22;30135;47.866;-4.222;2022-09-30T00:37:04;13.00;89.40
44431;DHT22;30135;47.866;-4.222;2022-09-30T00:39:30;13.00;89.40
44431;DHT22;30135;47.866;-4.222;2022-09-30T00:42:00;12.90;89.40
44431;DHT22;30135;47.866;-4.222;2022-09-30T00:47:37;12.90;89.50
44431;DHT22;30135;47.866;-4.222;2022-09-30T00:53:28;12.90;89.60
44431;DHT22;30135;47.866;-4.222;2022-09-30T00:56:14;12.80;89.60
44431;DHT22;30135;47.866;-4.222;2022-09-30T00:58:52;12.80;89.60
44431;DHT22;30135;47.866;-4.222;2022-09-30T01:01:22;12.80;89.70
44431;DHT22;30135;47.866;-4.222;2022-09-30T01:04:13;12.80;89.70
44431;DHT22;30135;47.866;-4.222;2022-09-30T01:06:41;12.80;89.70
44431;DHT22;30135;47.866;-4.222;2022-09-30T01:09:09;12.70;89.60
44431;DHT22;30135;47.866;-4.222;2022-09-30T01:11:35;12.70;89.60
44431;DHT22;30135;47.866;-4.222;2022-09-30T01:14:05;12.70;89.70
44431;DHT22;30135;47.866;-4.222;2022-09-30T01:22:34;12.60;89.50
44431;DHT22;30135;47.866;-4.222;2022-09-30T01:34:19;12.50;89.50
44431;DHT22;30135;47.866;-4.222;2022-09-30T01:40:13;12.40;89.60
44431;DHT22;30135;47.866;-4.222;2022-09-30T01:48:21;12.40;90.00
44431;DHT22;30135;47.866;-4.222;2022-09-30T01:51:04;12.30;89.90
44431;DHT22;30135;47.866;-4.222;2022-09-30T01:53:55;12.30;89.90
44431;DHT22;30135;47.866;-4.222;2022-09-30T01:59:15;12.30;89.90
44431;DHT22;30135;47.866;-4.222;2022-09-30T02:01:52;12.30;89.90
44431;DHT22;30135;47.866;-4.222;2022-09-30T02:04:34;12.20;89.90
44431;DHT22;30135;47.866;-4.222;2022-09-30T02:07:11;12.20;89.80
44431;DHT22;30135;47.866;-4.222;2022-09-30T02:09:47;12.20;89.80
44431;DHT22;30135;47.866;-4.222;2022-09-30T02:12:21;12.20;89.80
44431;DHT22;30135;47.866;-4.222;2022-09-30T02:15:04;12.20;89.80
44431;DHT22;30135;47.866;-4.222;2022-09-30T02:17:44;12.10;89.80
44431;DHT22;30135;47.866;-4.222;2022-09-30T02:20:23;12.10;89.90
44431;DHT22;30135;47.866;-4.222;2022-09-30T02:23:03;12.20;90.10
44431;DHT22;30135;47.866;-4.222;2022-09-30T02:25:36;12.10;90.10
44431;DHT22;30135;47.866;-4.222;2022-09-30T02:28:10;12.10;90.10
44431;DHT22;30135;47.866;-4.222;2022-09-30T02:30:44;12.10;90.20
44431;DHT22;30135;47.866;-4.222;2022-09-30T02:33:23;12.10;90.20
44431;DHT22;30135;47.866;-4.222;2022-09-30T02:36:06;12.10;90.20
44431;DHT22;30135;47.866;-4.222;2022-09-30T02:38:41;12.10;90.20
44431;DHT22;30135;47.866;-4.222;2022-09-30T02:41:21;12.00;90.10
44431;DHT22;30135;47.866;-4.222;2022-09-30T02:43:49;12.10;90.20
44431;DHT22;30135;47.866;-4.222;2022-09-30T02:46:46;12.00;90.20
44431;DHT22;30135;47.866;-4.222;2022-09-30T02:49:39;12.00;90.10
44431;DHT22;30135;47.866;-4.222;2022-09-30T02:55:25;12.00;90.10
44431;DHT22;30135;47.866;-4.222;2022-09-30T03:00:39;11.90;90.20
44431;DHT22;30135;47.866;-4.222;2022-09-30T03:06:17;11.90;90.20
44431;DHT22;30135;47.866;-4.222;2022-09-30T03:08:44;11.90;90.20
44431;DHT22;30135;47.866;-4.222;2022-09-30T03:11:19;11.90;90.10
44431;DHT22;30135;47.866;-4.222;2022-09-30T03:34:37;11.80;90.30
44431;DHT22;30135;47.866;-4.222;2022-09-30T03:42:56;11.70;90.20
44431;DHT22;30135;47.866;-4.222;2022-09-30T03:45:36;11.70;90.20
44431;DHT22;30135;47.866;-4.222;2022-09-30T03:48:07;11.70;90.30
44431;DHT22;30135;47.866;-4.222;2022-09-30T03:50:36;11.70;90.30
44431;DHT22;30135;47.866;-4.222;2022-09-30T03:53:08;11.70;90.40
44431;DHT22;30135;47.866;-4.222;2022-09-30T03:55:47;11.60;90.30
44431;DHT22;30135;47.866;-4.222;2022-09-30T03:58:15;11.70;90.40
44431;DHT22;30135;47.866;-4.222;2022-09-30T04:00:47;11.60;90.40
44431;DHT22;30135;47.866;-4.222;2022-09-30T04:03:15;11.60;90.30
44431;DHT22;30135;47.866;-4.222;2022-09-30T04:05:42;11.60;90.70
44431;DHT22;30135;47.866;-4.222;2022-09-30T04:08:08;11.60;90.30
44431;DHT22;30135;47.866;-4.222;2022-09-30T04:10:34;11.60;90.20
44431;DHT22;30135;47.866;-4.222;2022-09-30T04:13:01;11.60;90.20
44431;DHT22;30135;47.866;-4.222;2022-09-30T04:15:27;11.50;90.10
44431;DHT22;30135;47.866;-4.222;2022-09-30T04:17:53;11.50;90.00
44431;DHT22;30135;47.866;-4.222;2022-09-30T04:20:19;11.50;90.00
44431;DHT22;30135;47.866;-4.222;2022-09-30T04:22:46;11.50;90.00
44431;DHT22;30135;47.866;-4.222;2022-09-30T04:25:12;11.40;89.90
44431;DHT22;30135;47.866;-4.222;2022-09-30T04:27:38;11.40;90.00
44431;DHT22;30135;47.866;-4.222;2022-09-30T04:30:04;11.40;89.90
44431;DHT22;30135;47.866;-4.222;2022-09-30T04:32:31;11.40;89.90
44431;DHT22;30135;47.866;-4.222;2022-09-30T04:34:57;11.40;89.90
44431;DHT22;30135;47.866;-4.222;2022-09-30T04:37:23;11.40;90.00
44431;DHT22;30135;47.866;-4.222;2022-09-30T04:39:49;11.40;90.00
44431;DHT22;30135;47.866;-4.222;2022-09-30T04:42:15;11.30;90.00
44431;DHT22;30135;47.866;-4.222;2022-09-30T04:44:42;11.30;90.00
44431;DHT22;30135;47.866;-4.222;2022-09-30T04:47:09;11.30;90.00
44431;DHT22;30135;47.866;-4.222;2022-09-30T04:49:35;11.30;90.30
44431;DHT22;30135;47.866;-4.222;2022-09-30T04:52:01;11.30;90.00
44431;DHT22;30135;47.866;-4.222;2022-09-30T04:54:27;11.30;90.00
44431;DHT22;30135;47.866;-4.222;2022-09-30T04:56:53;11.20;89.90
44431;DHT22;30135;47.866;-4.222;2022-09-30T04:59:19;11.20;89.90
44431;DHT22;30135;47.866;-4.222;2022-09-30T05:01:45;11.20;89.90
44431;DHT22;30135;47.866;-4.222;2022-09-30T05:04:10;11.20;90.00
44431;DHT22;30135;47.866;-4.222;2022-09-30T05:06:37;11.20;90.00
44431;DHT22;30135;47.866;-4.222;2022-09-30T05:09:06;11.10;89.90
44431;DHT22;30135;47.866;-4.222;2022-09-30T05:11:33;11.10;89.90
44431;DHT22;30135;47.866;-4.222;2022-09-30T05:13:59;11.10;89.90
44431;DHT22;30135;47.866;-4.222;2022-09-30T05:16:24;11.10;89.90
44431;DHT22;30135;47.866;-4.222;2022-09-30T05:18:52;11.10;89.80
44431;DHT22;30135;47.866;-4.222;2022-09-30T05:21:18;11.10;89.80
44431;DHT22;30135;47.866;-4.222;2022-09-30T05:23:46;11.10;89.70
44431;DHT22;30135;47.866;-4.222;2022-09-30T05:26:13;11.10;89.70
44431;DHT22;30135;47.866;-4.222;2022-09-30T05:28:40;11.00;89.60
44431;DHT22;30135;47.866;-4.222;2022-09-30T05:31:06;11.00;89.60
44431;DHT22;30135;47.866;-4.222;2022-09-30T05:33:33;11.00;89.80
44431;DHT22;30135;47.866;-4.222;2022-09-30T05:36:02;11.00;89.80
44431;DHT22;30135;47.866;-4.222;2022-09-30T05:38:31;11.00;89.80
44431;DHT22;30135;47.866;-4.222;2022-09-30T05:40:57;11.00;89.80
44431;DHT22;30135;47.866;-4.222;2022-09-30T05:43:24;10.90;89.80
44431;DHT22;30135;47.866;-4.222;2022-09-30T05:45:56;10.90;89.80
44431;DHT22;30135;47.866;-4.222;2022-09-30T05:48:23;10.90;89.70
44431;DHT22;30135;47.866;-4.222;2022-09-30T05:50:54;10.90;89.70
44431;DHT22;30135;47.866;-4.222;2022-09-30T05:53:22;10.90;89.80
44431;DHT22;30135;47.866;-4.222;2022-09-30T05:55:49;10.80;89.70
44431;DHT22;30135;47.866;-4.222;2022-09-30T05:58:16;10.80;89.70
44431;DHT22;30135;47.866;-4.222;2022-09-30T06:00:44;10.80;89.80
44431;DHT22;30135;47.866;-4.222;2022-09-30T06:03:13;10.80;89.80
44431;DHT22;30135;47.866;-4.222;2022-09-30T06:05:39;10.80;89.90
44431;DHT22;30135;47.866;-4.222;2022-09-30T06:08:05;10.80;89.90
44431;DHT22;30135;47.866;-4.222;2022-09-30T06:10:34;10.80;89.80
44431;DHT22;30135;47.866;-4.222;2022-09-30T06:13:04;10.80;89.90
44431;DHT22;30135;47.866;-4.222;2022-09-30T06:15:30;10.80;89.80
44431;DHT22;30135;47.866;-4.222;2022-09-30T06:17:57;10.70;89.70
44431;DHT22;30135;47.866;-4.222;2022-09-30T06:20:24;10.70;89.90
44431;DHT22;30135;47.866;-4.222;2022-09-30T06:22:51;10.70;90.00
44431;DHT22;30135;47.866;-4.222;2022-09-30T06:25:18;10.70;90.00
44431;DHT22;30135;47.866;-4.222;2022-09-30T06:27:45;10.70;90.00
44431;DHT22;30135;47.866;-4.222;2022-09-30T06:30:15;10.70;90.10
44431;DHT22;30135;47.866;-4.222;2022-09-30T06:32:43;10.70;90.20
44431;DHT22;30135;47.866;-4.222;2022-09-30T06:35:09;10.70;90.30
44431;DHT22;30135;47.866;-4.222;2022-09-30T06:37:37;10.70;90.30
44431;DHT22;30135;47.866;-4.222;2022-09-30T06:40:04;10.70;90.40
44431;DHT22;30135;47.866;-4.222;2022-09-30T06:42:32;10.80;90.50
44431;DHT22;30135;47.866;-4.222;2022-09-30T06:44:59;10.70;90.60
44431;DHT22;30135;47.866;-4.222;2022-09-30T06:47:25;10.80;90.70
44431;DHT22;30135;47.866;-4.222;2022-09-30T06:49:52;10.80;90.80
44431;DHT22;30135;47.866;-4.222;2022-09-30T06:52:23;10.80;91.00
44431;DHT22;30135;47.866;-4.222;2022-09-30T06:54:51;10.80;91.10
44431;DHT22;30135;47.866;-4.222;2022-09-30T06:57:21;10.80;91.20
44431;DHT22;30135;47.866;-4.222;2022-09-30T06:59:50;10.90;91.30
44431;DHT22;30135;47.866;-4.222;2022-09-30T07:02:18;10.90;91.40
44431;DHT22;30135;47.866;-4.222;2022-09-30T07:04:43;10.90;91.50
44431;DHT22;30135;47.866;-4.222;2022-09-30T07:07:09;11.00;91.60
44431;DHT22;30135;47.866;-4.222;2022-09-30T07:09:36;11.00;91.70
44431;DHT22;30135;47.866;-4.222;2022-09-30T07:12:02;11.00;91.80
44431;DHT22;30135;47.866;-4.222;2022-09-30T07:14:29;11.10;91.90
44431;DHT22;30135;47.866;-4.222;2022-09-30T07:16:57;11.10;92.00
44431;DHT22;30135;47.866;-4.222;2022-09-30T07:19:23;11.10;92.00
44431;DHT22;30135;47.866;-4.222;2022-09-30T07:21:49;11.20;92.20
44431;DHT22;30135;47.866;-4.222;2022-09-30T07:24:19;11.20;92.20
44431;DHT22;30135;47.866;-4.222;2022-09-30T07:26:45;11.20;92.40
44431;DHT22;30135;47.866;-4.222;2022-09-30T07:29:11;11.20;92.40
44431;DHT22;30135;47.866;-4.222;2022-09-30T07:31:38;11.30;92.50
44431;DHT22;30135;47.866;-4.222;2022-09-30T07:34:06;11.30;92.70
44431;DHT22;30135;47.866;-4.222;2022-09-30T07:36:33;11.30;92.80
44431;DHT22;30135;47.866;-4.222;2022-09-30T07:39:05;11.30;92.80
44431;DHT22;30135;47.866;-4.222;2022-09-30T07:41:34;11.40;92.90
44431;DHT22;30135;47.866;-4.222;2022-09-30T07:44:02;11.40;93.00
44431;DHT22;30135;47.866;-4.222;2022-09-30T07:46:32;11.50;93.00
44431;DHT22;30135;47.866;-4.222;2022-09-30T07:49:00;11.50;93.10
44431;DHT22;30135;47.866;-4.222;2022-09-30T07:51:31;11.50;93.20
44431;DHT22;30135;47.866;-4.222;2022-09-30T07:54:06;11.60;93.30
44431;DHT22;30135;47.866;-4.222;2022-09-30T07:56:52;11.60;93.40
44431;DHT22;30135;47.866;-4.222;2022-09-30T07:59:18;11.60;93.40
44431;DHT22;30135;47.866;-4.222;2022-09-30T08:01:46;11.70;93.60
44431;DHT22;30135;47.866;-4.222;2022-09-30T08:04:13;11.70;93.70
44431;DHT22;30135;47.866;-4.222;2022-09-30T08:06:42;11.80;93.80
44431;DHT22;30135;47.866;-4.222;2022-09-30T08:09:14;11.80;93.90
44431;DHT22;30135;47.866;-4.222;2022-09-30T08:11:41;11.90;94.10
44431;DHT22;30135;47.866;-4.222;2022-09-30T08:14:21;11.90;94.30
44431;DHT22;30135;47.866;-4.222;2022-09-30T08:16:51;12.00;94.30
44431;DHT22;30135;47.866;-4.222;2022-09-30T08:19:19;12.00;94.30
44431;DHT22;30135;47.866;-4.222;2022-09-30T08:21:48;12.10;94.40
44431;DHT22;30135;47.866;-4.222;2022-09-30T08:24:14;12.10;94.50
44431;DHT22;30135;47.866;-4.222;2022-09-30T08:26:42;12.20;94.90
44431;DHT22;30135;47.866;-4.222;2022-09-30T08:29:09;12.30;95.00
44431;DHT22;30135;47.866;-4.222;2022-09-30T08:31:39;12.30;95.10
44431;DHT22;30135;47.866;-4.222;2022-09-30T08:34:05;12.40;95.20
44431;DHT22;30135;47.866;-4.222;2022-09-30T08:36:32;12.50;95.30
44431;DHT22;30135;47.866;-4.222;2022-09-30T08:38:59;12.50;95.50
44431;DHT22;30135;47.866;-4.222;2022-09-30T08:47:06;12.70;96.10
44431;DHT22;30135;47.866;-4.222;2022-09-30T08:50:20;12.80;96.50
44431;DHT22;30135;47.866;-4.222;2022-09-30T08:52:55;12.90;96.70
44431;DHT22;30135;47.866;-4.222;2022-09-30T08:55:45;13.00;96.70
44431;DHT22;30135;47.866;-4.222;2022-09-30T08:58:28;13.10;97.10
44431;DHT22;30135;47.866;-4.222;2022-09-30T09:01:14;13.10;97.30
44431;DHT22;30135;47.866;-4.222;2022-09-30T09:03:46;13.20;97.60
44431;DHT22;30135;47.866;-4.222;2022-09-30T09:09:04;13.40;97.60
44431;DHT22;30135;47.866;-4.222;2022-09-30T09:11:58;13.50;99.80
44431;DHT22;30135;47.866;-4.222;2022-09-30T09:14:54;13.60;98.20
44431;DHT22;30135;47.866;-4.222;2022-09-30T09:20:21;13.90;98.50
44431;DHT22;30135;47.866;-4.222;2022-09-30T09:22:50;14.00;98.80
44431;DHT22;30135;47.866;-4.222;2022-09-30T09:25:21;14.00;98.70
44431;DHT22;30135;47.866;-4.222;2022-09-30T09:28:22;14.10;98.90
44431;DHT22;30135;47.866;-4.222;2022-09-30T09:31:12;14.30;99.70
44431;DHT22;30135;47.866;-4.222;2022-09-30T09:33:42;14.40;99.20
44431;DHT22;30135;47.866;-4.222;2022-09-30T09:36:32;14.40;99.20
44431;DHT22;30135;47.866;-4.222;2022-09-30T09:42:46;14.60;99.50
44431;DHT22;30135;47.866;-4.222;2022-09-30T09:46:02;14.60;99.80
44431;DHT22;30135;47.866;-4.222;2022-09-30T09:48:30;14.70;99.60
44431;DHT22;30135;47.866;-4.222;2022-09-30T09:53:53;14.80;99.50
44431;DHT22;30135;47.866;-4.222;2022-09-30T09:56:29;14.90;99.60
44431;DHT22;30135;47.866;-4.222;2022-09-30T09:59:11;14.90;99.60
44431;DHT22;30135;47.866;-4.222;2022-09-30T10:01:51;15.00;99.70
44431;DHT22;30135;47.866;-4.222;2022-09-30T10:04:50;15.00;99.60
44431;DHT22;30135;47.866;-4.222;2022-09-30T10:07:25;15.10;99.50
44431;DHT22;30135;47.866;-4.222;2022-09-30T10:10:15;15.10;99.50
44431;DHT22;30135;47.866;-4.222;2022-09-30T10:12:45;15.10;99.30
44431;DHT22;30135;47.866;-4.222;2022-09-30T10:15:21;15.20;99.30
44431;DHT22;30135;47.866;-4.222;2022-09-30T10:17:55;15.20;99.30
44431;DHT22;30135;47.866;-4.222;2022-09-30T10:20:26;15.30;99.30
44431;DHT22;30135;47.866;-4.222;2022-09-30T10:23:21;15.30;99.10
44431;DHT22;30135;47.866;-4.222;2022-09-30T10:25:57;15.30;98.80
44431;DHT22;30135;47.866;-4.222;2022-09-30T10:28:32;15.40;98.80
44431;DHT22;30135;47.866;-4.222;2022-09-30T10:31:09;15.40;98.60
44431;DHT22;30135;47.866;-4.222;2022-09-30T10:33:43;15.40;98.40
44431;DHT22;30135;47.866;-4.222;2022-09-30T10:36:17;15.50;98.30
44431;DHT22;30135;47.866;-4.222;2022-09-30T10:39:07;15.50;98.10
44431;DHT22;30135;47.866;-4.222;2022-09-30T10:41:40;15.50;97.80
44431;DHT22;30135;47.866;-4.222;2022-09-30T10:44:19;15.50;97.80
44431;DHT22;30135;47.866;-4.222;2022-09-30T10:46:49;15.60;97.40
44431;DHT22;30135;47.866;-4.222;2022-09-30T10:49:39;15.60;97.40
44431;DHT22;30135;47.866;-4.222;2022-09-30T10:52:30;15.60;96.90
44431;DHT22;30135;47.866;-4.222;2022-09-30T10:55:00;15.60;96.70
44431;DHT22;30135;47.866;-4.222;2022-09-30T10:57:34;15.60;96.90
44431;DHT22;30135;47.866;-4.222;2022-09-30T11:03:24;15.70;96.90
44431;DHT22;30135;47.866;-4.222;2022-09-30T11:05:45;15.70;96.80
44431;DHT22;30135;47.866;-4.222;2022-09-30T11:09:20;15.70;96.70
44431;DHT22;30135;47.866;-4.222;2022-09-30T11:11:42;15.70;96.50
44431;DHT22;30135;47.866;-4.222;2022-09-30T11:14:32;15.80;96.50
44431;DHT22;30135;47.866;-4.222;2022-09-30T11:20:02;15.80;96.50
44431;DHT22;30135;47.866;-4.222;2022-09-30T11:28:39;15.80;95.90
44431;DHT22;30135;47.866;-4.222;2022-09-30T11:42:13;15.90;95.50
44431;DHT22;30135;47.866;-4.222;2022-09-30T11:45:14;15.90;95.50
44431;DHT22;30135;47.866;-4.222;2022-09-30T11:48:17;15.90;95.20
44431;DHT22;30135;47.866;-4.222;2022-09-30T11:51:03;15.90;95.00
44431;DHT22;30135;47.866;-4.222;2022-09-30T11:53:49;15.90;95.00
44431;DHT22;30135;47.866;-4.222;2022-09-30T11:59:50;15.90;94.60
44431;DHT22;30135;47.866;-4.222;2022-09-30T12:13:42;15.90;93.80
44431;DHT22;30135;47.866;-4.222;2022-09-30T12:16:23;15.90;93.80
44431;DHT22;30135;47.866;-4.222;2022-09-30T12:22:19;15.90;93.50
44431;DHT22;30135;47.866;-4.222;2022-09-30T12:24:48;15.90;93.30
44431;DHT22;30135;47.866;-4.222;2022-09-30T12:27:30;15.90;93.40
44431;DHT22;30135;47.866;-4.222;2022-09-30T12:30:09;15.90;93.20
44431;DHT22;30135;47.866;-4.222;2022-09-30T12:47:45;16.00;92.60
44431;DHT22;30135;47.866;-4.222;2022-09-30T12:50:26;16.00;92.70
44431;DHT22;30135;47.866;-4.222;2022-09-30T12:52:55;16.00;92.70
44431;DHT22;30135;47.866;-4.222;2022-09-30T12:55:35;16.00;92.70
44431;DHT22;30135;47.866;-4.222;2022-09-30T12:58:04;16.00;92.60
44431;DHT22;30135;47.866;-4.222;2022-09-30T13:00:34;16.00;92.60
44431;DHT22;30135;47.866;-4.222;2022-09-30T13:03:06;16.00;92.60
44431;DHT22;30135;47.866;-4.222;2022-09-30T13:08:21;16.00;92.50
44431;DHT22;30135;47.866;-4.222;2022-09-30T13:10:58;16.10;92.40
44431;DHT22;30135;47.866;-4.222;2022-09-30T13:13:27;16.10;92.40
44431;DHT22;30135;47.866;-4.222;2022-09-30T13:15:58;16.10;92.40
44431;DHT22;30135;47.866;-4.222;2022-09-30T13:23:48;16.20;92.30
44431;DHT22;30135;47.866;-4.222;2022-09-30T13:28:50;16.20;92.20
44431;DHT22;30135;47.866;-4.222;2022-09-30T13:31:21;16.20;92.30
44431;DHT22;30135;47.866;-4.222;2022-09-30T13:39:26;16.30;92.50
44431;DHT22;30135;47.866;-4.222;2022-09-30T13:42:00;16.30;92.60
44431;DHT22;30135;47.866;-4.222;2022-09-30T13:45:03;16.30;92.60
44431;DHT22;30135;47.866;-4.222;2022-09-30T13:47:46;16.30;92.60
44431;DHT22;30135;47.866;-4.222;2022-09-30T13:50:26;16.30;92.70
44431;DHT22;30135;47.866;-4.222;2022-09-30T13:53:01;16.30;92.80
44431;DHT22;30135;47.866;-4.222;2022-09-30T13:55:42;16.30;92.80
44431;DHT22;30135;47.866;-4.222;2022-09-30T13:58:29;16.30;92.90
44431;DHT22;30135;47.866;-4.222;2022-09-30T14:01:47;16.20;92.90
44431;DHT22;30135;47.866;-4.222;2022-09-30T14:10:51;16.20;93.20
44431;DHT22;30135;47.866;-4.222;2022-09-30T14:19:48;16.20;93.50
44431;DHT22;30135;47.866;-4.222;2022-09-30T14:22:26;16.30;93.60
44431;DHT22;30135;47.866;-4.222;2022-09-30T14:24:55;16.30;93.70
44431;DHT22;30135;47.866;-4.222;2022-09-30T14:30:21;16.30;94.00
44431;DHT22;30135;47.866;-4.222;2022-09-30T14:33:02;16.30;94.60
44431;DHT22;30135;47.866;-4.222;2022-09-30T14:35:35;16.40;94.30
44431;DHT22;30135;47.866;-4.222;2022-09-30T14:38:16;16.40;94.10
44431;DHT22;30135;47.866;-4.222;2022-09-30T14:40:52;16.40;94.20
44431;DHT22;30135;47.866;-4.222;2022-09-30T14:43:24;16.40;94.30
44431;DHT22;30135;47.866;-4.222;2022-09-30T14:49:08;16.40;94.30
44431;DHT22;30135;47.866;-4.222;2022-09-30T14:51:45;16.40;94.30
44431;DHT22;30135;47.866;-4.222;2022-09-30T14:54:19;16.40;94.30
44431;DHT22;30135;47.866;-4.222;2022-09-30T14:56:48;16.40;94.30
44431;DHT22;30135;47.866;-4.222;2022-09-30T14:59:20;16.50;94.30
44431;DHT22;30135;47.866;-4.222;2022-09-30T15:02:07;16.40;94.60
44431;DHT22;30135;47.866;-4.222;2022-09-30T15:04:51;16.50;94.20
44431;DHT22;30135;47.866;-4.222;2022-09-30T15:07:19;16.50;94.10
44431;DHT22;30135;47.866;-4.222;2022-09-30T15:09:47;16.50;94.10
44431;DHT22;30135;47.866;-4.222;2022-09-30T15:12:21;16.50;94.00
44431;DHT22;30135;47.866;-4.222;2022-09-30T15:14:49;16.50;93.90
44431;DHT22;30135;47.866;-4.222;2022-09-30T15:17:24;16.40;93.80
44431;DHT22;30135;47.866;-4.222;2022-09-30T15:19:56;16.50;93.80
44431;DHT22;30135;47.866;-4.222;2022-09-30T15:22:26;16.50;93.80
44431;DHT22;30135;47.866;-4.222;2022-09-30T15:24:55;16.50;93.70
44431;DHT22;30135;47.866;-4.222;2022-09-30T15:27:31;16.50;93.70
44431;DHT22;30135;47.866;-4.222;2022-09-30T15:30:02;16.50;93.60
44431;DHT22;30135;47.866;-4.222;2022-09-30T15:32:39;16.50;93.60
44431;DHT22;30135;47.866;-4.222;2022-09-30T15:35:11;16.50;93.60
44431;DHT22;30135;47.866;-4.222;2022-09-30T15:37:40;16.50;93.50
44431;DHT22;30135;47.866;-4.222;2022-09-30T15:40:22;16.50;93.60
44431;DHT22;30135;47.866;-4.222;2022-09-30T15:43:09;16.50;93.60
44431;DHT22;30135;47.866;-4.222;2022-09-30T15:45:42;16.50;93.60
44431;DHT22;30135;47.866;-4.222;2022-09-30T15:50:56;16.50;93.70
44431;DHT22;30135;47.866;-4.222;2022-09-30T15:56:25;16.50;93.80
44431;DHT22;30135;47.866;-4.222;2022-09-30T15:59:00;16.50;94.00
44431;DHT22;30135;47.866;-4.222;2022-09-30T16:07:07;16.60;94.10
44431;DHT22;30135;47.866;-4.222;2022-09-30T16:09:39;16.60;94.60
44431;DHT22;30135;47.866;-4.222;2022-09-30T16:14:47;16.60;94.30
44431;DHT22;30135;47.866;-4.222;2022-09-30T16:17:20;16.60;94.50
44431;DHT22;30135;47.866;-4.222;2022-09-30T16:19:52;16.60;94.50
44431;DHT22;30135;47.866;-4.222;2022-09-30T16:27:47;16.60;94.80
44431;DHT22;30135;47.866;-4.222;2022-09-30T16:30:24;16.60;95.30
44431;DHT22;30135;47.866;-4.222;2022-09-30T16:32:55;16.60;95.00
44431;DHT22;30135;47.866;-4.222;2022-09-30T16:35:25;16.60;95.00
44431;DHT22;30135;47.866;-4.222;2022-09-30T16:38:09;16.60;95.20
44431;DHT22;30135;47.866;-4.222;2022-09-30T16:40:39;16.60;95.30
44431;DHT22;30135;47.866;-4.222;2022-09-30T16:43:07;16.60;95.40
44431;DHT22;30135;47.866;-4.222;2022-09-30T16:45:38;16.60;95.40
44431;DHT22;30135;47.866;-4.222;2022-09-30T16:48:14;16.60;95.60
44431;DHT22;30135;47.866;-4.222;2022-09-30T16:50:49;16.60;95.60
44431;DHT22;30135;47.866;-4.222;2022-09-30T16:53:18;16.60;95.60
44431;DHT22;30135;47.866;-4.222;2022-09-30T16:55:44;16.60;95.70
44431;DHT22;30135;47.866;-4.222;2022-09-30T16:58:13;16.60;95.70
44431;DHT22;30135;47.866;-4.222;2022-09-30T17:00:41;16.60;95.80
44431;DHT22;30135;47.866;-4.222;2022-09-30T17:03:16;16.60;95.90
44431;DHT22;30135;47.866;-4.222;2022-09-30T17:05:47;16.60;96.00
44431;DHT22;30135;47.866;-4.222;2022-09-30T17:08:17;16.60;96.00
44431;DHT22;30135;47.866;-4.222;2022-09-30T17:10:45;16.60;96.10
44431;DHT22;30135;47.866;-4.222;2022-09-30T17:13:15;16.60;96.20
44431;DHT22;30135;47.866;-4.222;2022-09-30T17:15:47;16.60;96.50
44431;DHT22;30135;47.866;-4.222;2022-09-30T17:18:18;16.60;96.30
44431;DHT22;30135;47.866;-4.222;2022-09-30T17:20:47;16.60;96.40
44431;DHT22;30135;47.866;-4.222;2022-09-30T17:23:23;16.60;96.50
44431;DHT22;30135;47.866;-4.222;2022-09-30T17:25:50;16.60;96.70
44431;DHT22;30135;47.866;-4.222;2022-09-30T17:28:17;16.60;96.80
44431;DHT22;30135;47.866;-4.222;2022-09-30T17:30:44;16.60;97.00
44431;DHT22;30135;47.866;-4.222;2022-09-30T17:33:14;16.60;97.00
44431;DHT22;30135;47.866;-4.222;2022-09-30T17:35:42;16.60;97.10
44431;DHT22;30135;47.866;-4.222;2022-09-30T17:38:12;16.60;97.30
44431;DHT22;30135;47.866;-4.222;2022-09-30T17:40:39;16.60;97.40
44431;DHT22;30135;47.866;-4.222;2022-09-30T17:43:24;16.60;97.50
44431;DHT22;30135;47.866;-4.222;2022-09-30T17:45:51;16.60;97.60
44431;DHT22;30135;47.866;-4.222;2022-09-30T17:48:20;16.60;97.70
44431;DHT22;30135;47.866;-4.222;2022-09-30T17:50:47;16.60;97.80
44431;DHT22;30135;47.866;-4.222;2022-09-30T17:53:15;16.60;97.90
44431;DHT22;30135;47.866;-4.222;2022-09-30T17:55:46;16.60;98.00
44431;DHT22;30135;47.866;-4.222;2022-09-30T17:58:14;16.70;98.00
44431;DHT22;30135;47.866;-4.222;2022-09-30T18:00:42;16.70;98.10
44431;DHT22;30135;47.866;-4.222;2022-09-30T18:03:09;16.70;98.10
44431;DHT22;30135;47.866;-4.222;2022-09-30T18:05:39;16.70;98.10
44431;DHT22;30135;47.866;-4.222;2022-09-30T18:08:05;16.70;98.30
44431;DHT22;30135;47.866;-4.222;2022-09-30T18:10:35;16.70;98.20
44431;DHT22;30135;47.866;-4.222;2022-09-30T18:13:04;16.70;98.40
44431;DHT22;30135;47.866;-4.222;2022-09-30T18:15:31;16.70;98.60
44431;DHT22;30135;47.866;-4.222;2022-09-30T18:18:00;16.70;98.70
44431;DHT22;30135;47.866;-4.222;2022-09-30T18:20:27;16.70;98.70
44431;DHT22;30135;47.866;-4.222;2022-09-30T18:22:53;16.70;98.80
44431;DHT22;30135;47.866;-4.222;2022-09-30T18:25:20;16.70;98.80
44431;DHT22;30135;47.866;-4.222;2022-09-30T18:27:53;16.80;99.00
44431;DHT22;30135;47.866;-4.222;2022-09-30T18:30:22;16.70;99.00
44431;DHT22;30135;47.866;-4.222;2022-09-30T18:32:50;16.80;99.00
44431;DHT22;30135;47.866;-4.222;2022-09-30T18:35:19;16.80;99.10
44431;DHT22;30135;47.866;-4.222;2022-09-30T18:37:47;16.80;99.20
44431;DHT22;30135;47.866;-4.222;2022-09-30T18:40:19;16.80;99.20
44431;DHT22;30135;47.866;-4.222;2022-09-30T18:42:47;16.80;99.20
44431;DHT22;30135;47.866;-4.222;2022-09-30T18:45:20;16.80;99.30
44431;DHT22;30135;47.866;-4.222;2022-09-30T18:47:47;16.90;99.30
44431;DHT22;30135;47.866;-4.222;2022-09-30T18:50:14;16.90;99.40
44431;DHT22;30135;47.866;-4.222;2022-09-30T18:52:43;16.90;99.50
44431;DHT22;30135;47.866;-4.222;2022-09-30T18:55:10;16.90;99.50
44431;DHT22;30135;47.866;-4.222;2022-09-30T18:57:36;16.90;99.50
44431;DHT22;30135;47.866;-4.222;2022-09-30T19:00:04;16.90;99.60
44431;DHT22;30135;47.866;-4.222;2022-09-30T19:02:32;16.90;99.60
44431;DHT22;30135;47.866;-4.222;2022-09-30T19:04:58;16.90;99.70